sensor_id;sensor_type;location;lat;lon;timestamp;temperature;humidity
55121;DHT22;41019;48.512;9.036;2022-10-04T00:02:19;9.00;94.80
55121;DHT22;41019;48.512;9.036;2022-10-04T00:04:54;9.00;94.70
55121;DHT22;41019;48.512;9.036;2022-10-04T00:07:34;9.00;94.70
55121;DHT22;41019;48.512;9.036;2022-10-04T00:10:04;9.00;94.60
55121;DHT22;41019;48.512;9.036;2022-10-04T00:12:33;9.00;94.30
55121;DHT22;41019;48.512;9.036;2022-10-04T00:15:29;8.90;94.80
55121;DHT22;41019;48.512;9.036;2022-10-04T00:25:56;8.90;94.50
55121;DHT22;41019;48.512;9.036;2022-10-04T00:28:26;8.90;94.20
55121;DHT22;41019;48.512;9.036;2022-10-04T00:31:12;8.90;94.30
55121;DHT22;41019;48.512;9.036;2022-10-04T00:34:43;8.90;94.70
55121;DHT22;41019;48.512;9.036;2022-10-04T00:36:55;8.90;94.50
55121;DHT22;41019;48.512;9.036;2022-10-04T00:42:18;8.90;94.40
55121;DHT22;41019;48.512;9.036;2022-10-04T00:44:56;8.80;94.40
55121;DHT22;41019;48.512;9.036;2022-10-04T00:47:55;8.80;94.50
55121;DHT22;41019;48.512;9.036;2022-10-04T00:50:30;8.70;94.20
55121;DHT22;41019;48.512;9.036;2022-10-04T00:53:01;8.70;93.90
55121;DHT22;41019;48.512;9.036;2022-10-04T00:55:42;8.70;93.90
55121;DHT22;41019;48.512;9.036;2022-10-04T00:58:25;8.70;94.20
55121;DHT22;41019;48.512;9.036;2022-10-04T01:00:54;8.60;94.10
55121;DHT22;41019;48.512;9.036;2022-10-04T01:03:35;8.60;94.20
55121;DHT22;41019;48.512;9.036;2022-10-04T01:06:05;8.60;94.10
55121;DHT22;41019;48.512;9.036;2022-10-04T01:11:29;8.50;93.70
55121;DHT22;41019;48.512;9.036;2022-10-04T01:14:20;8.50;93.70
55121;DHT22;41019;48.512;9.036;2022-10-04T01:16:50;8.50;93.90
55121;DHT22;41019;48.512;9.036;2022-10-04T01:24:39;8.40;94.20
55121;DHT22;41019;48.512;9.036;2022-10-04T01:27:35;8.40;94.20
55121;DHT22;41019;48.512;9.036;2022-10-04T01:30:09;8.40;94.10
55121;DHT22;41019;48.512;9.036;2022-10-04T01:32:37;8.40;93.90
55121;DHT22;41019;48.512;9.036;2022-10-04T01:35:07;8.40;94.00
55121;DHT22;41019;48.512;9.036;2022-10-04T01:37:33;8.40;93.90
55121;DHT22;41019;48.512;9.036;2022-10-04T01:40:00;8.30;94.00
55121;DHT22;41019;48.512;9.036;2022-10-04T01:42:34;8.40;94.40
55121;DHT22;41019;48.512;9.036;2022-10-04T01:45:45;8.40;94.10
55121;DHT22;41019;48.512;9.036;2022-10-04T01:47:58;8.30;94.10
55121;DHT22;41019;48.512;9.036;2022-10-04T01:50:35;8.40;94.40
55121;DHT22;41019;48.512;9.036;2022-10-04T01:53:30;8.40;94.10
55121;DHT22;41019;48.512;9.036;2022-10-04T01:56:15;8.40;93.90
55121;DHT22;41019;48.512;9.036;2022-10-04T01:58:47;8.30;93.60
55121;DHT22;41019;48.512;9.036;2022-10-04T02:01:31;8.30;93.50
55121;DHT22;41019;48.512;9.036;2022-10-04T02:04:02;8.20;93.20
55121;DHT22;41019;48.512;9.036;2022-10-04T02:06:38;8.20;93.20
55121;DHT22;41019;48.512;9.036;2022-10-04T02:09:12;8.20;93.10
55121;DHT22;41019;48.512;9.036;2022-10-04T02:11:40;8.10;93.00
55121;DHT22;41019;48.512;9.036;2022-10-04T02:14:18;8.10;92.90
55121;DHT22;41019;48.512;9.036;2022-10-04T02:16:47;8.00;92.90
55121;DHT22;41019;48.512;9.036;2022-10-04T02:19:22;8.00;93.20
55121;DHT22;41019;48.512;9.036;2022-10-04T02:21:51;7.90;93.40
55121;DHT22;41019;48.512;9.036;2022-10-04T02:24:18;7.90;92.90
55121;DHT22;41019;48.512;9.036;2022-10-04T02:26:51;7.90;92.70
55121;DHT22;41019;48.512;9.036;2022-10-04T02:29:19;7.90;92.80
55121;DHT22;41019;48.512;9.036;2022-10-04T02:31:49;7.80;92.80
55121;DHT22;41019;48.512;9.036;2022-10-04T02:34:35;7.80;92.80
55121;DHT22;41019;48.512;9.036;2022-10-04T02:37:03;7.80;92.50
55121;DHT22;41019;48.512;9.036;2022-10-04T02:39:42;7.80;92.70
55121;DHT22;41019;48.512;9.036;2022-10-04T02:42:37;7.80;92.60
55121;DHT22;41019;48.512;9.036;2022-10-04T02:48:00;7.70;93.00
55121;DHT22;41019;48.512;9.036;2022-10-04T02:50:35;7.60;93.00
55121;DHT22;41019;48.512;9.036;2022-10-04T02:53:33;7.60;93.30
55121;DHT22;41019;48.512;9.036;2022-10-04T02:56:02;7.70;93.30
55121;DHT22;41019;48.512;9.036;2022-10-04T02:58:29;7.70;93.00
55121;DHT22;41019;48.512;9.036;2022-10-04T03:00:58;7.70;93.40
55121;DHT22;41019;48.512;9.036;2022-10-04T03:03:35;7.70;93.70
55121;DHT22;41019;48.512;9.036;2022-10-04T03:06:09;7.70;93.20
55121;DHT22;41019;48.512;9.036;2022-10-04T03:08:57;7.70;93.50
55121;DHT22;41019;48.512;9.036;2022-10-04T03:11:29;7.60;94.00
55121;DHT22;41019;48.512;9.036;2022-10-04T03:13:58;7.70;94.20
55121;DHT22;41019;48.512;9.036;2022-10-04T03:16:26;7.70;94.00
55121;DHT22;41019;48.512;9.036;2022-10-04T03:18:55;7.70;94.00
55121;DHT22;41019;48.512;9.036;2022-10-04T03:21:24;7.70;93.70
55121;DHT22;41019;48.512;9.036;2022-10-04T03:23:52;7.70;93.30
55121;DHT22;41019;48.512;9.036;2022-10-04T03:26:25;7.70;93.30
55121;DHT22;41019;48.512;9.036;2022-10-04T03:28:56;7.70;93.50
55121;DHT22;41019;48.512;9.036;2022-10-04T03:31:24;7.70;93.70
55121;DHT22;41019;48.512;9.036;2022-10-04T03:33:54;7.70;93.60
55121;DHT22;41019;48.512;9.036;2022-10-04T03:36:23;7.70;93.40
55121;DHT22;41019;48.512;9.036;2022-10-04T03:38:54;7.70;93.30
55121;DHT22;41019;48.512;9.036;2022-10-04T03:41:22;7.70;93.10
55121;DHT22;41019;48.512;9.036;2022-10-04T03:43:53;7.60;93.20
55121;DHT22;41019;48.512;9.036;2022-10-04T03:46:20;7.60;92.90
55121;DHT22;41019;48.512;9.036;2022-10-04T03:48:55;7.60;93.00
55121;DHT22;41019;48.512;9.036;2022-10-04T03:51:25;7.60;92.70
55121;DHT22;41019;48.512;9.036;2022-10-04T03:53:55;7.60;92.80
55121;DHT22;41019;48.512;9.036;2022-10-04T03:58:49;7.60;93.10
55121;DHT22;41019;48.512;9.036;2022-10-04T04:01:44;7.70;92.30
55121;DHT22;41019;48.512;9.036;2022-10-04T04:09:40;7.60;92.90
55121;DHT22;41019;48.512;9.036;2022-10-04T04:12:20;7.50;92.30
55121;DHT22;41019;48.512;9.036;2022-10-04T04:14:50;7.50;92.50
55121;DHT22;41019;48.512;9.036;2022-10-04T04:17:33;7.50;92.80
55121;DHT22;41019;48.512;9.036;2022-10-04T04:20:04;7.50;92.70
55121;DHT22;41019;48.512;9.036;2022-10-04T04:22:34;7.40;92.70
55121;DHT22;41019;48.512;9.036;2022-10-04T04:25:05;7.40;92.60
55121;DHT22;41019;48.512;9.036;2022-10-04T04:27:38;7.40;92.90
55121;DHT22;41019;48.512;9.036;2022-10-04T04:30:07;7.40;92.60
55121;DHT22;41019;48.512;9.036;2022-10-04T04:32:40;7.40;92.70
55121;DHT22;41019;48.512;9.036;2022-10-04T04:35:24;7.30;92.70
55121;DHT22;41019;48.512;9.036;2022-10-04T04:38:24;7.30;92.60
55121;DHT22;41019;48.512;9.036;2022-10-04T04:40:52;7.30;92.70
55121;DHT22;41019;48.512;9.036;2022-10-04T04:43:25;7.30;92.60
55121;DHT22;41019;48.512;9.036;2022-10-04T04:45:52;7.30;91.90
55121;DHT22;41019;48.512;9.036;2022-10-04T04:48:20;7.20;91.80
55121;DHT22;41019;48.512;9.036;2022-10-04T04:50:53;7.20;91.90
55121;DHT22;41019;48.512;9.036;2022-10-04T04:53:27;7.20;91.80
55121;DHT22;41019;48.512;9.036;2022-10-04T04:55:59;7.20;91.40
55121;DHT22;41019;48.512;9.036;2022-10-04T04:58:36;7.10;91.40
55121;DHT22;41019;48.512;9.036;2022-10-04T05:06:33;7.10;92.60
55121;DHT22;41019;48.512;9.036;2022-10-04T05:08:59;7.10;92.70
55121;DHT22;41019;48.512;9.036;2022-10-04T05:11:37;7.10;92.30
55121;DHT22;41019;48.512;9.036;2022-10-04T05:14:10;7.00;92.00
55121;DHT22;41019;48.512;9.036;2022-10-04T05:16:53;7.00;92.20
55121;DHT22;41019;48.512;9.036;2022-10-04T05:21:55;6.90;92.20
55121;DHT22;41019;48.512;9.036;2022-10-04T05:24:32;6.90;92.30
55121;DHT22;41019;48.512;9.036;2022-10-04T05:27:06;6.90;92.40
55121;DHT22;41019;48.512;9.036;2022-10-04T05:29:37;6.90;92.50
55121;DHT22;41019;48.512;9.036;2022-10-04T05:34:37;6.90;92.30
55121;DHT22;41019;48.512;9.036;2022-10-04T05:37:17;6.90;92.40
55121;DHT22;41019;48.512;9.036;2022-10-04T05:42:38;6.90;92.40
55121;DHT22;41019;48.512;9.036;2022-10-04T05:48:00;6.80;91.80
55121;DHT22;41019;48.512;9.036;2022-10-04T05:50:34;6.80;92.00
55121;DHT22;41019;48.512;9.036;2022-10-04T05:56:56;6.90;92.10
55121;DHT22;41019;48.512;9.036;2022-10-04T06:03:00;7.00;91.90
55121;DHT22;41019;48.512;9.036;2022-10-04T06:05:47;7.00;92.00
55121;DHT22;41019;48.512;9.036;2022-10-04T06:08:36;7.00;92.20
55121;DHT22;41019;48.512;9.036;2022-10-04T06:11:51;7.00;91.90
55121;DHT22;41019;48.512;9.036;2022-10-04T06:22:32;7.10;92.40
55121;DHT22;41019;48.512;9.036;2022-10-04T06:25:12;7.20;92.10
55121;DHT22;41019;48.512;9.036;2022-10-04T06:31:26;7.20;92.20
55121;DHT22;41019;48.512;9.036;2022-10-04T06:34:26;7.20;91.60
55121;DHT22;41019;48.512;9.036;2022-10-04T06:39:58;7.20;92.00
55121;DHT22;41019;48.512;9.036;2022-10-04T06:48:10;7.30;92.20
55121;DHT22;41019;48.512;9.036;2022-10-04T06:50:51;7.30;92.30
55121;DHT22;41019;48.512;9.036;2022-10-04T06:54:16;7.30;92.10
55121;DHT22;41019;48.512;9.036;2022-10-04T07:02:31;7.50;92.20
55121;DHT22;41019;48.512;9.036;2022-10-04T07:07:43;7.60;92.40
55121;DHT22;41019;48.512;9.036;2022-10-04T07:10:39;7.60;92.10
55121;DHT22;41019;48.512;9.036;2022-10-04T07:16:04;7.70;91.80
55121;DHT22;41019;48.512;9.036;2022-10-04T07:18:59;7.80;91.60
55121;DHT22;41019;48.512;9.036;2022-10-04T07:21:40;7.80;91.60
55121;DHT22;41019;48.512;9.036;2022-10-04T07:24:11;7.80;91.10
55121;DHT22;41019;48.512;9.036;2022-10-04T07:26:47;7.90;91.40
55121;DHT22;41019;48.512;9.036;2022-10-04T07:37:09;8.00;91.00
55121;DHT22;41019;48.512;9.036;2022-10-04T07:45:16;8.10;91.70
55121;DHT22;41019;48.512;9.036;2022-10-04T07:47:44;8.20;91.70
55121;DHT22;41019;48.512;9.036;2022-10-04T07:50:21;8.30;91.80
55121;DHT22;41019;48.512;9.036;2022-10-04T07:53:22;8.30;91.70
55121;DHT22;41019;48.512;9.036;2022-10-04T07:56:11;8.40;91.10
55121;DHT22;41019;48.512;9.036;2022-10-04T07:59:15;8.50;91.50
55121;DHT22;41019;48.512;9.036;2022-10-04T08:01:58;8.60;91.50
55121;DHT22;41019;48.512;9.036;2022-10-04T08:04:36;8.80;91.20
55121;DHT22;41019;48.512;9.036;2022-10-04T08:07:20;8.70;90.40
55121;DHT22;41019;48.512;9.036;2022-10-04T08:12:42;9.00;91.50
55121;DHT22;41019;48.512;9.036;2022-10-04T08:34:30;9.90;88.30
55121;DHT22;41019;48.512;9.036;2022-10-04T08:37:27;10.00;87.80
55121;DHT22;41019;48.512;9.036;2022-10-04T08:49:19;10.50;86.10
55121;DHT22;41019;48.512;9.036;2022-10-04T09:16:46;12.20;80.70
55121;DHT22;41019;48.512;9.036;2022-10-04T09:22:47;12.50;78.40
55121;DHT22;41019;48.512;9.036;2022-10-04T09:25:31;12.70;78.50
55121;DHT22;41019;48.512;9.036;2022-10-04T09:31:14;13.00;78.50
55121;DHT22;41019;48.512;9.036;2022-10-04T09:37:01;13.40;76.20
55121;DHT22;41019;48.512;9.036;2022-10-04T09:44:58;14.00;75.90
55121;DHT22;41019;48.512;9.036;2022-10-04T09:47:43;14.10;75.80
55121;DHT22;41019;48.512;9.036;2022-10-04T09:52:42;14.40;73.90
55121;DHT22;41019;48.512;9.036;2022-10-04T09:58:47;14.60;74.70
55121;DHT22;41019;48.512;9.036;2022-10-04T10:01:32;14.70;73.70
55121;DHT22;41019;48.512;9.036;2022-10-04T10:04:28;14.90;74.30
55121;DHT22;41019;48.512;9.036;2022-10-04T10:10:17;15.20;72.60
55121;DHT22;41019;48.512;9.036;2022-10-04T10:18:56;15.70;72.30
55121;DHT22;41019;48.512;9.036;2022-10-04T10:53:24;18.20;63.90
55121;DHT22;41019;48.512;9.036;2022-10-04T11:04:59;18.90;62.00
55121;DHT22;41019;48.512;9.036;2022-10-04T11:35:37;20.30;58.20
55121;DHT22;41019;48.512;9.036;2022-10-04T11:41:02;20.70;58.50
55121;DHT22;41019;48.512;9.036;2022-10-04T11:43:55;20.70;57.10
55121;DHT22;41019;48.512;9.036;2022-10-04T11:55:17;21.00;55.50
55121;DHT22;41019;48.512;9.036;2022-10-04T11:58:04;21.10;58.40
55121;DHT22;41019;48.512;9.036;2022-10-04T12:01:05;21.30;57.10
55121;DHT22;41019;48.512;9.036;2022-10-04T12:09:16;21.60;54.60
55121;DHT22;41019;48.512;9.036;2022-10-04T12:32:28;22.10;54.90
55121;DHT22;41019;48.512;9.036;2022-10-04T12:43:31;22.30;51.90
55121;DHT22;41019;48.512;9.036;2022-10-04T12:54:29;22.40;51.40
55121;DHT22;41019;48.512;9.036;2022-10-04T12:57:29;22.30;51.50
55121;DHT22;41019;48.512;9.036;2022-10-04T13:05:58;22.10;51.10
55121;DHT22;41019;48.512;9.036;2022-10-04T13:14:18;21.90;53.90
55121;DHT22;41019;48.512;9.036;2022-10-04T13:19:49;22.00;54.00
55121;DHT22;41019;48.512;9.036;2022-10-04T13:22:31;22.00;53.90
55121;DHT22;41019;48.512;9.036;2022-10-04T13:27:58;21.90;52.60
55121;DHT22;41019;48.512;9.036;2022-10-04T13:42:36;21.80;52.80
55121;DHT22;41019;48.512;9.036;2022-10-04T13:45:20;21.80;53.60
55121;DHT22;41019;48.512;9.036;2022-10-04T13:57:30;21.50;55.30
55121;DHT22;41019;48.512;9.036;2022-10-04T14:00:11;21.30;55.20
55121;DHT22;41019;48.512;9.036;2022-10-04T14:03:01;21.30;57.30
55121;DHT22;41019;48.512;9.036;2022-10-04T14:20:14;20.80;57.80
55121;DHT22;41019;48.512;9.036;2022-10-04T14:34:54;20.20;61.70
55121;DHT22;41019;48.512;9.036;2022-10-04T14:46:13;19.70;63.50
55121;DHT22;41019;48.512;9.036;2022-10-04T14:49:06;19.50;64.20
55121;DHT22;41019;48.512;9.036;2022-10-04T14:51:57;19.50;63.80
55121;DHT22;41019;48.512;9.036;2022-10-04T14:57:19;19.40;64.40
55121;DHT22;41019;48.512;9.036;2022-10-04T15:06:00;19.20;65.90
55121;DHT22;41019;48.512;9.036;2022-10-04T15:11:13;19.10;66.10
55121;DHT22;41019;48.512;9.036;2022-10-04T15:13:51;19.00;66.30
55121;DHT22;41019;48.512;9.036;2022-10-04T15:19:42;18.80;66.80
55121;DHT22;41019;48.512;9.036;2022-10-04T15:22:22;18.80;66.00
55121;DHT22;41019;48.512;9.036;2022-10-04T15:24:53;18.70;67.70
55121;DHT22;41019;48.512;9.036;2022-10-04T15:36:08;18.30;69.90
55121;DHT22;41019;48.512;9.036;2022-10-04T15:38:54;18.10;70.10
55121;DHT22;41019;48.512;9.036;2022-10-04T15:47:37;17.80;71.70
55121;DHT22;41019;48.512;9.036;2022-10-04T15:50:29;17.70;73.00
55121;DHT22;41019;48.512;9.036;2022-10-04T16:14:22;17.10;77.00
55121;DHT22;41019;48.512;9.036;2022-10-04T16:16:57;17.00;77.10
55121;DHT22;41019;48.512;9.036;2022-10-04T16:22:17;16.80;77.80
55121;DHT22;41019;48.512;9.036;2022-10-04T16:28:16;16.70;79.70
55121;DHT22;41019;48.512;9.036;2022-10-04T16:34:00;16.50;81.10
55121;DHT22;41019;48.512;9.036;2022-10-04T16:42:57;16.20;82.40
55121;DHT22;41019;48.512;9.036;2022-10-04T16:45:42;16.20;82.10
55121;DHT22;41019;48.512;9.036;2022-10-04T16:48:45;16.20;82.30
55121;DHT22;41019;48.512;9.036;2022-10-04T16:54:01;16.10;82.30
55121;DHT22;41019;48.512;9.036;2022-10-04T17:05:29;15.90;84.10
55121;DHT22;41019;48.512;9.036;2022-10-04T17:16:13;15.50;85.70
55121;DHT22;41019;48.512;9.036;2022-10-04T17:30:03;15.20;87.40
55121;DHT22;41019;48.512;9.036;2022-10-04T17:32:51;15.20;87.50
55121;DHT22;41019;48.512;9.036;2022-10-04T17:44:41;14.80;88.40
55121;DHT22;41019;48.512;9.036;2022-10-04T17:50:04;14.70;90.00
55121;DHT22;41019;48.512;9.036;2022-10-04T17:53:16;14.60;90.30
55121;DHT22;41019;48.512;9.036;2022-10-04T17:56:05;14.50;90.60
55121;DHT22;41019;48.512;9.036;2022-10-04T17:58:44;14.40;90.90
55121;DHT22;41019;48.512;9.036;2022-10-04T18:01:32;14.40;90.70
55121;DHT22;41019;48.512;9.036;2022-10-04T18:04:13;14.30;91.20
55121;DHT22;41019;48.512;9.036;2022-10-04T18:06:54;14.30;91.30
55121;DHT22;41019;48.512;9.036;2022-10-04T18:09:34;14.20;91.30
55121;DHT22;41019;48.512;9.036;2022-10-04T18:17:42;14.10;92.00
55121;DHT22;41019;48.512;9.036;2022-10-04T18:22:49;14.00;92.30
55121;DHT22;41019;48.512;9.036;2022-10-04T18:25:18;13.90;92.80
55121;DHT22;41019;48.512;9.036;2022-10-04T18:30:52;13.80;92.00
55121;DHT22;41019;48.512;9.036;2022-10-04T18:33:22;13.80;92.30
55121;DHT22;41019;48.512;9.036;2022-10-04T18:36:13;13.70;92.40
55121;DHT22;41019;48.512;9.036;2022-10-04T18:38:42;13.70;92.20
55121;DHT22;41019;48.512;9.036;2022-10-04T18:41:20;13.60;92.20
55121;DHT22;41019;48.512;9.036;2022-10-04T18:46:23;13.50;92.20
55121;DHT22;41019;48.512;9.036;2022-10-04T18:48:50;13.40;91.80
55121;DHT22;41019;48.512;9.036;2022-10-04T18:51:40;13.30;91.80
55121;DHT22;41019;48.512;9.036;2022-10-04T18:54:16;13.30;91.90
55121;DHT22;41019;48.512;9.036;2022-10-04T18:56:59;13.20;92.00
55121;DHT22;41019;48.512;9.036;2022-10-04T19:02:42;13.10;91.90
55121;DHT22;41019;48.512;9.036;2022-10-04T19:15:35;12.80;91.60
55121;DHT22;41019;48.512;9.036;2022-10-04T19:26:39;12.60;91.40
55121;DHT22;41019;48.512;9.036;2022-10-04T19:40:38;12.30;91.40
55121;DHT22;41019;48.512;9.036;2022-10-04T19:43:14;12.20;91.30
55121;DHT22;41019;48.512;9.036;2022-10-04T19:45:49;12.10;91.30
55121;DHT22;41019;48.512;9.036;2022-10-04T19:48:20;12.10;92.30
55121;DHT22;41019;48.512;9.036;2022-10-04T19:51:11;12.00;92.10
55121;DHT22;41019;48.512;9.036;2022-10-04T19:53:43;12.00;91.60
55121;DHT22;41019;48.512;9.036;2022-10-04T19:56:33;11.90;91.60
55121;DHT22;41019;48.512;9.036;2022-10-04T19:59:06;11.80;92.20
55121;DHT22;41019;48.512;9.036;2022-10-04T20:01:35;11.80;92.10
55121;DHT22;41019;48.512;9.036;2022-10-04T20:04:10;11.80;92.10
55121;DHT22;41019;48.512;9.036;2022-10-04T20:06:57;11.70;91.90
55121;DHT22;41019;48.512;9.036;2022-10-04T20:12:00;11.60;91.70
55121;DHT22;41019;48.512;9.036;2022-10-04T20:19:36;11.50;91.40
55121;DHT22;41019;48.512;9.036;2022-10-04T20:34:52;11.30;91.80
55121;DHT22;41019;48.512;9.036;2022-10-04T20:37:18;11.20;91.80
55121;DHT22;41019;48.512;9.036;2022-10-04T20:42:37;11.20;91.90
55121;DHT22;41019;48.512;9.036;2022-10-04T20:50:27;11.10;91.80
55121;DHT22;41019;48.512;9.036;2022-10-04T20:52:57;11.00;91.60
55121;DHT22;41019;48.512;9.036;2022-10-04T20:55:29;10.90;92.20
55121;DHT22;41019;48.512;9.036;2022-10-04T20:58:31;10.90;92.00
55121;DHT22;41019;48.512;9.036;2022-10-04T21:06:52;10.70;91.60
55121;DHT22;41019;48.512;9.036;2022-10-04T21:09:18;10.70;91.70
55121;DHT22;41019;48.512;9.036;2022-10-04T21:11:49;10.60;91.70
55121;DHT22;41019;48.512;9.036;2022-10-04T21:14:26;10.60;92.00
55121;DHT22;41019;48.512;9.036;2022-10-04T21:16:55;10.60;91.60
55121;DHT22;41019;48.512;9.036;2022-10-04T21:22:04;10.50;92.20
55121;DHT22;41019;48.512;9.036;2022-10-04T21:24:42;10.50;92.00
55121;DHT22;41019;48.512;9.036;2022-10-04T21:27:10;10.40;91.70
55121;DHT22;41019;48.512;9.036;2022-10-04T21:29:38;10.40;92.20
55121;DHT22;41019;48.512;9.036;2022-10-04T21:32:04;10.40;91.90
55121;DHT22;41019;48.512;9.036;2022-10-04T21:34:30;10.30;91.90
55121;DHT22;41019;48.512;9.036;2022-10-04T21:36:56;10.30;92.20
55121;DHT22;41019;48.512;9.036;2022-10-04T21:39:23;10.30;91.90
55121;DHT22;41019;48.512;9.036;2022-10-04T21:41:50;10.30;91.90
55121;DHT22;41019;48.512;9.036;2022-10-04T21:44:16;10.20;91.30
55121;DHT22;41019;48.512;9.036;2022-10-04T21:46:42;10.10;91.70
55121;DHT22;41019;48.512;9.036;2022-10-04T21:49:07;10.10;91.80
55121;DHT22;41019;48.512;9.036;2022-10-04T21:51:33;10.10;91.70
55121;DHT22;41019;48.512;9.036;2022-10-04T21:54:02;10.10;92.00
55121;DHT22;41019;48.512;9.036;2022-10-04T21:56:29;10.00;91.50
55121;DHT22;41019;48.512;9.036;2022-10-04T21:58:55;10.00;92.00
55121;DHT22;41019;48.512;9.036;2022-10-04T22:01:21;10.00;92.00
55121;DHT22;41019;48.512;9.036;2022-10-04T22:03:47;9.90;91.90
55121;DHT22;41019;48.512;9.036;2022-10-04T22:06:13;9.90;92.00
55121;DHT22;41019;48.512;9.036;2022-10-04T22:08:39;9.90;92.80
55121;DHT22;41019;48.512;9.036;2022-10-04T22:11:05;9.90;93.30
55121;DHT22;41019;48.512;9.036;2022-10-04T22:13:31;9.90;93.10
55121;DHT22;41019;48.512;9.036;2022-10-04T22:15:57;9.80;92.50
55121;DHT22;41019;48.512;9.036;2022-10-04T22:18:23;9.80;93.10
55121;DHT22;41019;48.512;9.036;2022-10-04T22:20:49;9.90;94.20
55121;DHT22;41019;48.512;9.036;2022-10-04T22:23:20;9.90;95.00
55121;DHT22;41019;48.512;9.036;2022-10-04T22:25:47;9.90;94.90
55121;DHT22;41019;48.512;9.036;2022-10-04T22:28:33;9.90;95.50
55121;DHT22;41019;48.512;9.036;2022-10-04T22:30:58;10.00;95.40
55121;DHT22;41019;48.512;9.036;2022-10-04T22:33:34;10.00;95.30
55121;DHT22;41019;48.512;9.036;2022-10-04T22:36:35;10.00;94.60
55121;DHT22;41019;48.512;9.036;2022-10-04T22:41:39;10.00;94.70
55121;DHT22;41019;48.512;9.036;2022-10-04T22:44:13;9.90;94.00
55121;DHT22;41019;48.512;9.036;2022-10-04T22:46:42;9.90;93.70
55121;DHT22;41019;48.512;9.036;2022-10-04T22:49:11;9.90;93.20
55121;DHT22;41019;48.512;9.036;2022-10-04T22:51:40;9.80;92.90
55121;DHT22;41019;48.512;9.036;2022-10-04T22:54:30;9.80;92.90
55121;DHT22;41019;48.512;9.036;2022-10-04T22:56:57;9.80;92.80
55121;DHT22;41019;48.512;9.036;2022-10-04T22:59:33;9.70;92.40
55121;DHT22;41019;48.512;9.036;2022-10-04T23:02:07;9.60;92.30
55121;DHT22;41019;48.512;9.036;2022-10-04T23:04:34;9.60;92.20
55121;DHT22;41019;48.512;9.036;2022-10-04T23:07:00;9.60;92.20
55121;DHT22;41019;48.512;9.036;2022-10-04T23:09:26;9.60;92.40
55121;DHT22;41019;48.512;9.036;2022-10-04T23:11:52;9.50;91.90
55121;DHT22;41019;48.512;9.036;2022-10-04T23:14:17;9.50;92.00
55121;DHT22;41019;48.512;9.036;2022-10-04T23:16:44;9.40;92.50
55121;DHT22;41019;48.512;9.036;2022-10-04T23:19:12;9.40;92.10
55121;DHT22;41019;48.512;9.036;2022-10-04T23:21:43;9.30;92.50
55121;DHT22;41019;48.512;9.036;2022-10-04T23:24:18;9.30;92.30
55121;DHT22;41019;48.512;9.036;2022-10-04T23:26:48;9.30;92.20
55121;DHT22;41019;48.512;9.036;2022-10-04T23:29:26;9.30;91.80
55121;DHT22;41019;48.512;9.036;2022-10-04T23:31:55;9.20;92.70
55121;DHT22;41019;48.512;9.036;2022-10-04T23:34:29;9.20;91.80
55121;DHT22;41019;48.512;9.036;2022-10-04T23:36:57;9.10;92.20
55121;DHT22;41019;48.512;9.036;2022-10-04T23:39:32;9.10;91.80
55121;DHT22;41019;48.512;9.036;2022-10-04T23:42:01;9.10;91.80
55121;DHT22;41019;48.512;9.036;2022-10-04T23:44:36;9.00;92.20
55121;DHT22;41019;48.512;9.036;2022-10-04T23:47:10;9.00;92.70
55121;DHT22;41019;48.512;9.036;2022-10-04T23:49:38;9.00;92.80
55121;DHT22;41019;48.512;9.036;2022-10-04T23:52:18;9.00;92.40
55121;DHT22;41019;48.512;9.036;2022-10-04T23:54:50;9.00;92.90
55121;DHT22;41019;48.512;9.036;2022-10-04T23:57:21;9.00;93.30
55121;DHT22;41019;48.512;9.036;2022-10-04T23:59:49;8.90;92.80
